sensor_id;sensor_type;location;lat;lon;timestamp;P1;durP1;ratioP1;P2;durP2;ratioP2
79566;SDS011;69030;48.126;7.816;2024-03-02T00:00:20;5.43;;;3.33;;
79566;SDS011;69030;48.126;7.816;2024-03-02T00:02:48;7.80;;;5.50;;
79566;SDS011;69030;48.126;7.816;2024-03-02T00:05:15;6.72;;;4.97;;
79566;SDS011;69030;48.126;7.816;2024-03-02T00:07:45;3.83;;;2.38;;
79566;SDS011;69030;48.126;7.816;2024-03-02T00:10:16;8.00;;;4.15;;
79566;SDS011;69030;48.126;7.816;2024-03-02T00:12:42;8.13;;;2.53;;
79566;SDS011;69030;48.126;7.816;2024-03-02T00:15:24;5.20;;;2.85;;
79566;SDS011;69030;48.126;7.816;2024-03-02T00:20:53;5.45;;;2.75;;
79566;SDS011;69030;48.126;7.816;2024-03-02T00:23:21;3.00;;;1.88;;
79566;SDS011;69030;48.126;7.816;2024-03-02T00:25:48;3.33;;;1.90;;
79566;SDS011;69030;48.126;7.816;2024-03-02T00:28:29;5.22;;;2.00;;
79566;SDS011;69030;48.126;7.816;2024-03-02T00:33:26;3.15;;;2.13;;
79566;SDS011;69030;48.126;7.816;2024-03-02T00:35:57;4.65;;;3.38;;
79566;SDS011;69030;48.126;7.816;2024-03-02T00:38:24;5.50;;;4.47;;
79566;SDS011;69030;48.126;7.816;2024-03-02T00:40:50;4.30;;;3.35;;
79566;SDS011;69030;48.126;7.816;2024-03-02T00:46:17;8.40;;;4.30;;
79566;SDS011;69030;48.126;7.816;2024-03-02T00:49:00;4.85;;;2.30;;
79566;SDS011;69030;48.126;7.816;2024-03-02T00:51:29;7.10;;;4.50;;
79566;SDS011;69030;48.126;7.816;2024-03-02T00:53:57;4.20;;;2.70;;
79566;SDS011;69030;48.126;7.816;2024-03-02T00:56:24;5.70;;;4.65;;
79566;SDS011;69030;48.126;7.816;2024-03-02T00:58:51;7.78;;;4.80;;
79566;SDS011;69030;48.126;7.816;2024-03-02T01:01:17;4.25;;;2.60;;
79566;SDS011;69030;48.126;7.816;2024-03-02T01:03:44;5.43;;;3.58;;
79566;SDS011;69030;48.126;7.816;2024-03-02T01:06:10;4.53;;;3.80;;
79566;SDS011;69030;48.126;7.816;2024-03-02T01:08:36;6.78;;;4.55;;
79566;SDS011;69030;48.126;7.816;2024-03-02T01:11:02;10.85;;;4.85;;
79566;SDS011;69030;48.126;7.816;2024-03-02T01:13:31;7.38;;;5.53;;
79566;SDS011;69030;48.126;7.816;2024-03-02T01:15:57;7.45;;;3.28;;
79566;SDS011;69030;48.126;7.816;2024-03-02T01:18:24;6.75;;;4.35;;
79566;SDS011;69030;48.126;7.816;2024-03-02T01:20:50;5.50;;;2.65;;
79566;SDS011;69030;48.126;7.816;2024-03-02T01:23:21;5.72;;;2.78;;
79566;SDS011;69030;48.126;7.816;2024-03-02T01:25:48;6.25;;;3.67;;
79566;SDS011;69030;48.126;7.816;2024-03-02T01:28:14;6.32;;;3.33;;
79566;SDS011;69030;48.126;7.816;2024-03-02T01:30:40;8.90;;;3.95;;
79566;SDS011;69030;48.126;7.816;2024-03-02T01:33:06;7.43;;;5.32;;
79566;SDS011;69030;48.126;7.816;2024-03-02T01:35:32;7.18;;;3.67;;
79566;SDS011;69030;48.126;7.816;2024-03-02T01:37:58;6.35;;;3.08;;
79566;SDS011;69030;48.126;7.816;2024-03-02T01:40:26;7.13;;;4.43;;
79566;SDS011;69030;48.126;7.816;2024-03-02T01:42:53;7.20;;;5.05;;
79566;SDS011;69030;48.126;7.816;2024-03-02T01:45:19;6.95;;;4.18;;
79566;SDS011;69030;48.126;7.816;2024-03-02T01:47:45;4.88;;;4.00;;
79566;SDS011;69030;48.126;7.816;2024-03-02T01:50:11;5.63;;;3.13;;
79566;SDS011;69030;48.126;7.816;2024-03-02T01:52:36;6.00;;;3.30;;
79566;SDS011;69030;48.126;7.816;2024-03-02T01:55:02;7.43;;;2.33;;
79566;SDS011;69030;48.126;7.816;2024-03-02T01:57:29;4.95;;;3.50;;
79566;SDS011;69030;48.126;7.816;2024-03-02T01:59:55;6.32;;;3.50;;
79566;SDS011;69030;48.126;7.816;2024-03-02T02:02:21;5.40;;;2.50;;
79566;SDS011;69030;48.126;7.816;2024-03-02T02:04:47;5.85;;;4.45;;
79566;SDS011;69030;48.126;7.816;2024-03-02T02:07:13;5.40;;;4.90;;
79566;SDS011;69030;48.126;7.816;2024-03-02T02:09:41;10.35;;;4.65;;
79566;SDS011;69030;48.126;7.816;2024-03-02T02:14:33;9.07;;;4.72;;
79566;SDS011;69030;48.126;7.816;2024-03-02T02:16:59;8.55;;;4.85;;
79566;SDS011;69030;48.126;7.816;2024-03-02T02:19:25;4.88;;;3.20;;
79566;SDS011;69030;48.126;7.816;2024-03-02T02:21:50;5.93;;;3.80;;
79566;SDS011;69030;48.126;7.816;2024-03-02T02:24:16;4.78;;;2.83;;
79566;SDS011;69030;48.126;7.816;2024-03-02T02:26:41;4.15;;;2.92;;
79566;SDS011;69030;48.126;7.816;2024-03-02T02:29:07;5.07;;;2.58;;
79566;SDS011;69030;48.126;7.816;2024-03-02T02:31:38;3.72;;;2.33;;
79566;SDS011;69030;48.126;7.816;2024-03-02T02:34:05;4.63;;;1.98;;
79566;SDS011;69030;48.126;7.816;2024-03-02T02:36:34;4.65;;;3.17;;
79566;SDS011;69030;48.126;7.816;2024-03-02T02:39:00;2.05;;;1.52;;
79566;SDS011;69030;48.126;7.816;2024-03-02T02:41:28;4.35;;;1.55;;
79566;SDS011;69030;48.126;7.816;2024-03-02T02:43:54;3.30;;;2.47;;
79566;SDS011;69030;48.126;7.816;2024-03-02T02:46:20;4.80;;;2.95;;
79566;SDS011;69030;48.126;7.816;2024-03-02T02:48:46;2.63;;;1.55;;
79566;SDS011;69030;48.126;7.816;2024-03-02T02:51:11;2.58;;;1.60;;
79566;SDS011;69030;48.126;7.816;2024-03-02T02:53:38;2.83;;;1.67;;
79566;SDS011;69030;48.126;7.816;2024-03-02T02:56:08;3.40;;;3.15;;
79566;SDS011;69030;48.126;7.816;2024-03-02T02:58:34;3.60;;;3.30;;
79566;SDS011;69030;48.126;7.816;2024-03-02T03:00:59;3.80;;;1.75;;
79566;SDS011;69030;48.126;7.816;2024-03-02T03:03:43;3.10;;;1.85;;
79566;SDS011;69030;48.126;7.816;2024-03-02T03:06:11;3.45;;;3.08;;
79566;SDS011;69030;48.126;7.816;2024-03-02T03:08:37;3.55;;;3.25;;
79566;SDS011;69030;48.126;7.816;2024-03-02T03:11:03;4.82;;;3.97;;
79566;SDS011;69030;48.126;7.816;2024-03-02T03:13:30;3.30;;;3.00;;
79566;SDS011;69030;48.126;7.816;2024-03-02T03:15:56;4.20;;;3.00;;
79566;SDS011;69030;48.126;7.816;2024-03-02T03:18:21;4.72;;;1.98;;
79566;SDS011;69030;48.126;7.816;2024-03-02T03:20:47;3.08;;;1.30;;
79566;SDS011;69030;48.126;7.816;2024-03-02T03:23:13;4.03;;;2.15;;
79566;SDS011;69030;48.126;7.816;2024-03-02T03:25:42;2.83;;;2.35;;
79566;SDS011;69030;48.126;7.816;2024-03-02T03:28:08;2.33;;;1.30;;
79566;SDS011;69030;48.126;7.816;2024-03-02T03:33:02;2.60;;;2.40;;
79566;SDS011;69030;48.126;7.816;2024-03-02T03:35:28;2.60;;;1.33;;
79566;SDS011;69030;48.126;7.816;2024-03-02T03:37:54;2.80;;;1.00;;
79566;SDS011;69030;48.126;7.816;2024-03-02T03:40:19;1.92;;;1.02;;
79566;SDS011;69030;48.126;7.816;2024-03-02T03:42:45;2.13;;;1.45;;
79566;SDS011;69030;48.126;7.816;2024-03-02T03:45:11;2.38;;;1.75;;
79566;SDS011;69030;48.126;7.816;2024-03-02T03:47:36;8.80;;;3.10;;
79566;SDS011;69030;48.126;7.816;2024-03-02T03:50:02;2.30;;;1.15;;
79566;SDS011;69030;48.126;7.816;2024-03-02T03:52:31;4.18;;;1.52;;
79566;SDS011;69030;48.126;7.816;2024-03-02T03:54:58;6.97;;;2.20;;
79566;SDS011;69030;48.126;7.816;2024-03-02T03:57:24;4.70;;;3.42;;
79566;SDS011;69030;48.126;7.816;2024-03-02T03:59:49;2.85;;;1.48;;
79566;SDS011;69030;48.126;7.816;2024-03-02T04:02:14;3.75;;;3.50;;
79566;SDS011;69030;48.126;7.816;2024-03-02T04:04:40;2.47;;;1.58;;
79566;SDS011;69030;48.126;7.816;2024-03-02T04:07:05;2.78;;;1.55;;
79566;SDS011;69030;48.126;7.816;2024-03-02T04:09:31;3.47;;;2.55;;
79566;SDS011;69030;48.126;7.816;2024-03-02T04:11:57;4.57;;;3.35;;
79566;SDS011;69030;48.126;7.816;2024-03-02T04:14:23;3.35;;;3.05;;
79566;SDS011;69030;48.126;7.816;2024-03-02T04:16:49;3.28;;;2.78;;
79566;SDS011;69030;48.126;7.816;2024-03-02T04:19:14;3.47;;;1.88;;
79566;SDS011;69030;48.126;7.816;2024-03-02T04:21:40;3.42;;;1.33;;
79566;SDS011;69030;48.126;7.816;2024-03-02T04:24:06;2.55;;;1.88;;
79566;SDS011;69030;48.126;7.816;2024-03-02T04:26:31;2.95;;;2.65;;
79566;SDS011;69030;48.126;7.816;2024-03-02T04:28:56;2.25;;;1.25;;
79566;SDS011;69030;48.126;7.816;2024-03-02T04:31:22;2.65;;;2.25;;
79566;SDS011;69030;48.126;7.816;2024-03-02T04:33:47;3.45;;;2.58;;
79566;SDS011;69030;48.126;7.816;2024-03-02T04:36:13;5.93;;;5.03;;
79566;SDS011;69030;48.126;7.816;2024-03-02T04:38:39;16.23;;;7.05;;
79566;SDS011;69030;48.126;7.816;2024-03-02T04:41:05;32.42;;;13.50;;
79566;SDS011;69030;48.126;7.816;2024-03-02T04:43:32;36.45;;;16.75;;
79566;SDS011;69030;48.126;7.816;2024-03-02T04:45:59;40.28;;;15.23;;
79566;SDS011;69030;48.126;7.816;2024-03-02T04:48:25;27.17;;;12.75;;
79566;SDS011;69030;48.126;7.816;2024-03-02T04:50:51;19.67;;;11.02;;
79566;SDS011;69030;48.126;7.816;2024-03-02T04:53:17;17.52;;;10.93;;
79566;SDS011;69030;48.126;7.816;2024-03-02T04:55:45;16.42;;;7.93;;
79566;SDS011;69030;48.126;7.816;2024-03-02T04:58:24;9.73;;;5.22;;
79566;SDS011;69030;48.126;7.816;2024-03-02T05:00:49;8.77;;;5.65;;
79566;SDS011;69030;48.126;7.816;2024-03-02T05:03:15;4.68;;;2.55;;
79566;SDS011;69030;48.126;7.816;2024-03-02T05:05:41;5.03;;;3.67;;
79566;SDS011;69030;48.126;7.816;2024-03-02T05:08:06;5.35;;;3.85;;
79566;SDS011;69030;48.126;7.816;2024-03-02T05:10:32;3.90;;;3.47;;
79566;SDS011;69030;48.126;7.816;2024-03-02T05:12:57;4.97;;;3.05;;
79566;SDS011;69030;48.126;7.816;2024-03-02T05:15:24;3.40;;;2.10;;
79566;SDS011;69030;48.126;7.816;2024-03-02T05:17:50;7.03;;;3.90;;
79566;SDS011;69030;48.126;7.816;2024-03-02T05:20:16;3.75;;;3.22;;
79566;SDS011;69030;48.126;7.816;2024-03-02T05:22:42;3.97;;;1.67;;
79566;SDS011;69030;48.126;7.816;2024-03-02T05:25:07;5.20;;;3.55;;
79566;SDS011;69030;48.126;7.816;2024-03-02T05:27:34;3.78;;;3.42;;
79566;SDS011;69030;48.126;7.816;2024-03-02T05:30:00;4.68;;;3.92;;
79566;SDS011;69030;48.126;7.816;2024-03-02T05:32:26;4.07;;;1.67;;
79566;SDS011;69030;48.126;7.816;2024-03-02T05:34:52;4.20;;;2.28;;
79566;SDS011;69030;48.126;7.816;2024-03-02T05:37:17;5.13;;;4.57;;
79566;SDS011;69030;48.126;7.816;2024-03-02T05:39:43;3.72;;;1.92;;
79566;SDS011;69030;48.126;7.816;2024-03-02T05:42:09;3.90;;;1.95;;
79566;SDS011;69030;48.126;7.816;2024-03-02T05:44:35;3.20;;;2.60;;
79566;SDS011;69030;48.126;7.816;2024-03-02T05:47:01;5.05;;;2.47;;
79566;SDS011;69030;48.126;7.816;2024-03-02T05:49:28;4.82;;;1.58;;
79566;SDS011;69030;48.126;7.816;2024-03-02T05:51:53;2.58;;;1.73;;
79566;SDS011;69030;48.126;7.816;2024-03-02T05:54:19;5.60;;;1.50;;
79566;SDS011;69030;48.126;7.816;2024-03-02T05:56:44;2.45;;;1.90;;
79566;SDS011;69030;48.126;7.816;2024-03-02T05:59:10;6.07;;;3.45;;
79566;SDS011;69030;48.126;7.816;2024-03-02T06:01:39;2.25;;;1.30;;
79566;SDS011;69030;48.126;7.816;2024-03-02T06:04:06;7.13;;;2.03;;
79566;SDS011;69030;48.126;7.816;2024-03-02T06:06:31;3.20;;;1.38;;
79566;SDS011;69030;48.126;7.816;2024-03-02T06:08:59;3.17;;;1.55;;
79566;SDS011;69030;48.126;7.816;2024-03-02T06:11:25;4.88;;;3.33;;
79566;SDS011;69030;48.126;7.816;2024-03-02T06:13:51;4.68;;;1.52;;
79566;SDS011;69030;48.126;7.816;2024-03-02T06:16:16;3.78;;;3.50;;
79566;SDS011;69030;48.126;7.816;2024-03-02T06:18:42;2.22;;;1.35;;
79566;SDS011;69030;48.126;7.816;2024-03-02T06:21:07;3.03;;;2.72;;
79566;SDS011;69030;48.126;7.816;2024-03-02T06:23:33;1.95;;;0.77;;
79566;SDS011;69030;48.126;7.816;2024-03-02T06:25:59;4.40;;;1.50;;
79566;SDS011;69030;48.126;7.816;2024-03-02T06:28:27;5.88;;;1.77;;
79566;SDS011;69030;48.126;7.816;2024-03-02T06:30:53;4.20;;;2.38;;
79566;SDS011;69030;48.126;7.816;2024-03-02T06:33:19;2.88;;;1.58;;
79566;SDS011;69030;48.126;7.816;2024-03-02T06:35:45;2.20;;;1.35;;
79566;SDS011;69030;48.126;7.816;2024-03-02T06:38:10;3.42;;;1.67;;
79566;SDS011;69030;48.126;7.816;2024-03-02T06:40:35;3.50;;;3.08;;
79566;SDS011;69030;48.126;7.816;2024-03-02T06:43:04;5.35;;;3.75;;
79566;SDS011;69030;48.126;7.816;2024-03-02T06:45:30;8.02;;;6.00;;
79566;SDS011;69030;48.126;7.816;2024-03-02T06:47:56;6.72;;;3.75;;
79566;SDS011;69030;48.126;7.816;2024-03-02T06:50:22;3.60;;;2.70;;
79566;SDS011;69030;48.126;7.816;2024-03-02T06:52:47;6.78;;;6.03;;
79566;SDS011;69030;48.126;7.816;2024-03-02T06:55:13;3.78;;;3.30;;
79566;SDS011;69030;48.126;7.816;2024-03-02T06:57:38;4.05;;;3.00;;
79566;SDS011;69030;48.126;7.816;2024-03-02T07:00:04;7.07;;;3.83;;
79566;SDS011;69030;48.126;7.816;2024-03-02T07:02:30;5.93;;;5.28;;
79566;SDS011;69030;48.126;7.816;2024-03-02T07:04:55;6.88;;;3.67;;
79566;SDS011;69030;48.126;7.816;2024-03-02T07:07:21;6.93;;;3.17;;
79566;SDS011;69030;48.126;7.816;2024-03-02T07:09:46;8.15;;;5.60;;
79566;SDS011;69030;48.126;7.816;2024-03-02T07:12:13;4.65;;;3.28;;
79566;SDS011;69030;48.126;7.816;2024-03-02T07:14:40;5.55;;;4.50;;
79566;SDS011;69030;48.126;7.816;2024-03-02T07:17:24;5.53;;;4.40;;
79566;SDS011;69030;48.126;7.816;2024-03-02T07:19:50;6.03;;;3.78;;
79566;SDS011;69030;48.126;7.816;2024-03-02T07:22:15;4.93;;;4.43;;
79566;SDS011;69030;48.126;7.816;2024-03-02T07:24:41;3.25;;;1.70;;
79566;SDS011;69030;48.126;7.816;2024-03-02T07:27:07;3.88;;;3.53;;
79566;SDS011;69030;48.126;7.816;2024-03-02T07:29:34;5.00;;;3.17;;
79566;SDS011;69030;48.126;7.816;2024-03-02T07:31:59;7.78;;;3.67;;
79566;SDS011;69030;48.126;7.816;2024-03-02T07:34:24;5.53;;;3.90;;
79566;SDS011;69030;48.126;7.816;2024-03-02T07:36:50;9.85;;;5.18;;
79566;SDS011;69030;48.126;7.816;2024-03-02T07:39:15;8.13;;;3.95;;
79566;SDS011;69030;48.126;7.816;2024-03-02T07:41:45;7.47;;;4.07;;
79566;SDS011;69030;48.126;7.816;2024-03-02T07:44:12;5.00;;;2.80;;
79566;SDS011;69030;48.126;7.816;2024-03-02T07:46:40;4.28;;;3.33;;
79566;SDS011;69030;48.126;7.816;2024-03-02T07:49:09;3.15;;;1.85;;
79566;SDS011;69030;48.126;7.816;2024-03-02T07:51:35;2.88;;;1.83;;
79566;SDS011;69030;48.126;7.816;2024-03-02T07:54:01;3.03;;;1.67;;
79566;SDS011;69030;48.126;7.816;2024-03-02T07:56:27;3.97;;;1.75;;
79566;SDS011;69030;48.126;7.816;2024-03-02T07:58:53;2.88;;;2.35;;
79566;SDS011;69030;48.126;7.816;2024-03-02T08:01:19;3.80;;;3.50;;
79566;SDS011;69030;48.126;7.816;2024-03-02T08:03:45;2.72;;;2.50;;
79566;SDS011;69030;48.126;7.816;2024-03-02T08:06:15;2.90;;;1.60;;
79566;SDS011;69030;48.126;7.816;2024-03-02T08:08:41;4.10;;;1.60;;
79566;SDS011;69030;48.126;7.816;2024-03-02T08:11:06;2.83;;;1.77;;
79566;SDS011;69030;48.126;7.816;2024-03-02T08:13:37;3.25;;;2.95;;
79566;SDS011;69030;48.126;7.816;2024-03-02T08:16:03;2.70;;;1.70;;
79566;SDS011;69030;48.126;7.816;2024-03-02T08:18:39;4.70;;;1.85;;
79566;SDS011;69030;48.126;7.816;2024-03-02T08:21:04;5.68;;;3.22;;
79566;SDS011;69030;48.126;7.816;2024-03-02T08:23:33;4.95;;;2.08;;
79566;SDS011;69030;48.126;7.816;2024-03-02T08:25:59;3.10;;;2.63;;
79566;SDS011;69030;48.126;7.816;2024-03-02T08:28:25;3.40;;;1.40;;
79566;SDS011;69030;48.126;7.816;2024-03-02T08:30:50;5.90;;;3.35;;
79566;SDS011;69030;48.126;7.816;2024-03-02T08:33:15;3.65;;;3.00;;
79566;SDS011;69030;48.126;7.816;2024-03-02T08:35:41;3.95;;;3.65;;
79566;SDS011;69030;48.126;7.816;2024-03-02T08:38:06;4.18;;;2.08;;
79566;SDS011;69030;48.126;7.816;2024-03-02T08:40:32;7.40;;;5.90;;
79566;SDS011;69030;48.126;7.816;2024-03-02T08:42:58;8.80;;;6.32;;
79566;SDS011;69030;48.126;7.816;2024-03-02T08:45:23;6.68;;;5.70;;
79566;SDS011;69030;48.126;7.816;2024-03-02T08:47:48;8.25;;;5.30;;
79566;SDS011;69030;48.126;7.816;2024-03-02T08:50:14;8.55;;;5.72;;
79566;SDS011;69030;48.126;7.816;2024-03-02T08:52:40;5.75;;;4.85;;
79566;SDS011;69030;48.126;7.816;2024-03-02T08:55:05;5.65;;;2.38;;
79566;SDS011;69030;48.126;7.816;2024-03-02T08:57:32;3.40;;;2.78;;
79566;SDS011;69030;48.126;7.816;2024-03-02T08:59:58;8.93;;;5.65;;
79566;SDS011;69030;48.126;7.816;2024-03-02T09:02:25;5.63;;;4.15;;
79566;SDS011;69030;48.126;7.816;2024-03-02T09:04:50;6.28;;;3.05;;
79566;SDS011;69030;48.126;7.816;2024-03-02T09:07:16;8.18;;;5.00;;
79566;SDS011;69030;48.126;7.816;2024-03-02T09:09:42;7.25;;;2.50;;
79566;SDS011;69030;48.126;7.816;2024-03-02T09:12:08;3.40;;;1.50;;
79566;SDS011;69030;48.126;7.816;2024-03-02T09:14:33;3.33;;;2.05;;
79566;SDS011;69030;48.126;7.816;2024-03-02T09:17:00;3.60;;;1.85;;
79566;SDS011;69030;48.126;7.816;2024-03-02T09:19:25;2.10;;;1.35;;
79566;SDS011;69030;48.126;7.816;2024-03-02T09:21:52;3.03;;;2.42;;
79566;SDS011;69030;48.126;7.816;2024-03-02T09:24:20;3.03;;;1.95;;
79566;SDS011;69030;48.126;7.816;2024-03-02T09:26:46;3.22;;;1.35;;
79566;SDS011;69030;48.126;7.816;2024-03-02T09:29:14;3.00;;;1.40;;
79566;SDS011;69030;48.126;7.816;2024-03-02T09:31:40;4.13;;;2.63;;
79566;SDS011;69030;48.126;7.816;2024-03-02T09:34:06;4.35;;;2.08;;
79566;SDS011;69030;48.126;7.816;2024-03-02T09:36:32;3.55;;;2.40;;
79566;SDS011;69030;48.126;7.816;2024-03-02T09:38:57;3.25;;;2.90;;
79566;SDS011;69030;48.126;7.816;2024-03-02T09:41:23;5.78;;;2.50;;
79566;SDS011;69030;48.126;7.816;2024-03-02T09:43:49;4.65;;;2.72;;
79566;SDS011;69030;48.126;7.816;2024-03-02T09:46:15;5.82;;;2.40;;
79566;SDS011;69030;48.126;7.816;2024-03-02T09:48:41;3.50;;;3.03;;
79566;SDS011;69030;48.126;7.816;2024-03-02T09:51:11;3.25;;;2.92;;
79566;SDS011;69030;48.126;7.816;2024-03-02T09:53:38;3.80;;;2.63;;
79566;SDS011;69030;48.126;7.816;2024-03-02T09:56:03;3.58;;;3.03;;
79566;SDS011;69030;48.126;7.816;2024-03-02T09:58:29;5.10;;;3.58;;
79566;SDS011;69030;48.126;7.816;2024-03-02T10:00:56;2.17;;;1.45;;
79566;SDS011;69030;48.126;7.816;2024-03-02T10:03:26;6.45;;;3.70;;
79566;SDS011;69030;48.126;7.816;2024-03-02T10:05:52;4.50;;;2.63;;
79566;SDS011;69030;48.126;7.816;2024-03-02T10:08:17;10.68;;;5.45;;
79566;SDS011;69030;48.126;7.816;2024-03-02T10:10:43;8.15;;;4.50;;
79566;SDS011;69030;48.126;7.816;2024-03-02T10:13:12;8.70;;;3.50;;
79566;SDS011;69030;48.126;7.816;2024-03-02T10:15:39;10.27;;;5.72;;
79566;SDS011;69030;48.126;7.816;2024-03-02T10:18:09;3.38;;;1.80;;
79566;SDS011;69030;48.126;7.816;2024-03-02T10:20:36;4.22;;;2.88;;
79566;SDS011;69030;48.126;7.816;2024-03-02T10:23:15;7.60;;;3.05;;
79566;SDS011;69030;48.126;7.816;2024-03-02T10:25:42;2.70;;;2.10;;
79566;SDS011;69030;48.126;7.816;2024-03-02T10:28:08;3.30;;;3.08;;
79566;SDS011;69030;48.126;7.816;2024-03-02T10:30:34;1.92;;;1.48;;
79566;SDS011;69030;48.126;7.816;2024-03-02T10:33:03;1.73;;;1.13;;
79566;SDS011;69030;48.126;7.816;2024-03-02T10:35:29;2.28;;;1.38;;
79566;SDS011;69030;48.126;7.816;2024-03-02T10:37:58;2.00;;;1.05;;
79566;SDS011;69030;48.126;7.816;2024-03-02T10:40:25;1.58;;;1.48;;
79566;SDS011;69030;48.126;7.816;2024-03-02T10:42:52;2.45;;;1.48;;
79566;SDS011;69030;48.126;7.816;2024-03-02T10:45:17;1.42;;;1.00;;
79566;SDS011;69030;48.126;7.816;2024-03-02T10:47:46;2.35;;;1.95;;
79566;SDS011;69030;48.126;7.816;2024-03-02T10:50:12;2.40;;;1.42;;
79566;SDS011;69030;48.126;7.816;2024-03-02T10:52:37;1.45;;;1.30;;
79566;SDS011;69030;48.126;7.816;2024-03-02T10:55:04;1.65;;;1.55;;
79566;SDS011;69030;48.126;7.816;2024-03-02T11:00:33;1.17;;;0.35;;
79566;SDS011;69030;48.126;7.816;2024-03-02T11:03:06;1.52;;;1.35;;
79566;SDS011;69030;48.126;7.816;2024-03-02T11:05:36;2.58;;;1.67;;
79566;SDS011;69030;48.126;7.816;2024-03-02T11:08:06;0.88;;;0.80;;
79566;SDS011;69030;48.126;7.816;2024-03-02T11:10:55;1.58;;;1.13;;
79566;SDS011;69030;48.126;7.816;2024-03-02T11:13:31;1.55;;;1.35;;
79566;SDS011;69030;48.126;7.816;2024-03-02T11:15:59;4.15;;;1.50;;
79566;SDS011;69030;48.126;7.816;2024-03-02T11:18:29;0.93;;;0.93;;
79566;SDS011;69030;48.126;7.816;2024-03-02T11:23:33;1.10;;;1.00;;
79566;SDS011;69030;48.126;7.816;2024-03-02T11:26:18;1.50;;;1.15;;
79566;SDS011;69030;48.126;7.816;2024-03-02T11:28:49;1.13;;;0.90;;
79566;SDS011;69030;48.126;7.816;2024-03-02T11:31:15;6.30;;;0.57;;
79566;SDS011;69030;48.126;7.816;2024-03-02T11:33:43;1.88;;;1.55;;
79566;SDS011;69030;48.126;7.816;2024-03-02T11:36:18;1.52;;;1.42;;
79566;SDS011;69030;48.126;7.816;2024-03-02T11:38:43;0.63;;;0.60;;
79566;SDS011;69030;48.126;7.816;2024-03-02T11:41:13;2.38;;;2.17;;
79566;SDS011;69030;48.126;7.816;2024-03-02T11:43:40;2.00;;;1.15;;
79566;SDS011;69030;48.126;7.816;2024-03-02T11:46:05;1.27;;;0.98;;
79566;SDS011;69030;48.126;7.816;2024-03-02T11:48:38;1.50;;;1.40;;
79566;SDS011;69030;48.126;7.816;2024-03-02T11:51:04;3.28;;;1.38;;
79566;SDS011;69030;48.126;7.816;2024-03-02T11:53:30;2.28;;;2.10;;
79566;SDS011;69030;48.126;7.816;2024-03-02T11:55:57;0.95;;;0.95;;
79566;SDS011;69030;48.126;7.816;2024-03-02T11:58:24;1.88;;;1.75;;
79566;SDS011;69030;48.126;7.816;2024-03-02T12:00:52;1.35;;;0.60;;
79566;SDS011;69030;48.126;7.816;2024-03-02T12:03:18;2.85;;;1.20;;
79566;SDS011;69030;48.126;7.816;2024-03-02T12:05:48;2.05;;;1.73;;
79566;SDS011;69030;48.126;7.816;2024-03-02T12:08:18;1.00;;;0.85;;
79566;SDS011;69030;48.126;7.816;2024-03-02T12:10:55;1.13;;;0.57;;
79566;SDS011;69030;48.126;7.816;2024-03-02T12:13:21;1.15;;;1.05;;
79566;SDS011;69030;48.126;7.816;2024-03-02T12:15:52;2.50;;;1.77;;
79566;SDS011;69030;48.126;7.816;2024-03-02T12:18:20;1.48;;;1.17;;
79566;SDS011;69030;48.126;7.816;2024-03-02T12:20:45;2.42;;;1.60;;
79566;SDS011;69030;48.126;7.816;2024-03-02T12:23:10;1.25;;;0.93;;
79566;SDS011;69030;48.126;7.816;2024-03-02T12:25:36;1.85;;;1.60;;
79566;SDS011;69030;48.126;7.816;2024-03-02T12:28:03;1.65;;;1.55;;
79566;SDS011;69030;48.126;7.816;2024-03-02T12:30:29;2.33;;;1.15;;
79566;SDS011;69030;48.126;7.816;2024-03-02T12:32:55;1.95;;;1.85;;
79566;SDS011;69030;48.126;7.816;2024-03-02T12:35:21;0.60;;;0.30;;
79566;SDS011;69030;48.126;7.816;2024-03-02T12:37:47;1.15;;;1.05;;
79566;SDS011;69030;48.126;7.816;2024-03-02T12:40:14;1.08;;;0.98;;
79566;SDS011;69030;48.126;7.816;2024-03-02T12:42:43;1.90;;;1.42;;
79566;SDS011;69030;48.126;7.816;2024-03-02T12:45:09;1.55;;;0.95;;
79566;SDS011;69030;48.126;7.816;2024-03-02T12:47:35;1.20;;;1.10;;
79566;SDS011;69030;48.126;7.816;2024-03-02T12:50:02;0.80;;;0.38;;
79566;SDS011;69030;48.126;7.816;2024-03-02T12:52:28;9.02;;;1.45;;
79566;SDS011;69030;48.126;7.816;2024-03-02T12:55:02;1.98;;;1.13;;
79566;SDS011;69030;48.126;7.816;2024-03-02T12:57:39;1.15;;;1.08;;
79566;SDS011;69030;48.126;7.816;2024-03-02T13:00:05;1.85;;;1.75;;
79566;SDS011;69030;48.126;7.816;2024-03-02T13:02:39;2.58;;;1.05;;
79566;SDS011;69030;48.126;7.816;2024-03-02T13:05:06;1.50;;;1.40;;
79566;SDS011;69030;48.126;7.816;2024-03-02T13:07:36;1.95;;;1.13;;
79566;SDS011;69030;48.126;7.816;2024-03-02T13:10:02;1.00;;;0.82;;
79566;SDS011;69030;48.126;7.816;2024-03-02T13:12:30;3.05;;;1.58;;
79566;SDS011;69030;48.126;7.816;2024-03-02T13:14:57;1.23;;;1.13;;
79566;SDS011;69030;48.126;7.816;2024-03-02T13:17:23;1.25;;;1.15;;
79566;SDS011;69030;48.126;7.816;2024-03-02T13:19:53;1.27;;;0.57;;
79566;SDS011;69030;48.126;7.816;2024-03-02T13:22:19;1.05;;;0.95;;
79566;SDS011;69030;48.126;7.816;2024-03-02T13:24:45;1.17;;;1.08;;
79566;SDS011;69030;48.126;7.816;2024-03-02T13:27:10;0.98;;;0.88;;
79566;SDS011;69030;48.126;7.816;2024-03-02T13:29:35;1.88;;;1.77;;
79566;SDS011;69030;48.126;7.816;2024-03-02T13:32:02;1.17;;;1.08;;
79566;SDS011;69030;48.126;7.816;2024-03-02T13:34:27;2.53;;;1.50;;
79566;SDS011;69030;48.126;7.816;2024-03-02T13:36:53;1.60;;;1.30;;
79566;SDS011;69030;48.126;7.816;2024-03-02T13:39:18;1.17;;;1.08;;
79566;SDS011;69030;48.126;7.816;2024-03-02T13:41:44;1.42;;;0.95;;
79566;SDS011;69030;48.126;7.816;2024-03-02T13:44:17;4.63;;;2.20;;
79566;SDS011;69030;48.126;7.816;2024-03-02T13:46:43;8.05;;;3.63;;
79566;SDS011;69030;48.126;7.816;2024-03-02T13:49:10;4.18;;;2.22;;
79566;SDS011;69030;48.126;7.816;2024-03-02T13:51:36;8.27;;;3.90;;
79566;SDS011;69030;48.126;7.816;2024-03-02T13:54:02;9.48;;;4.57;;
79566;SDS011;69030;48.126;7.816;2024-03-02T13:56:28;5.07;;;2.63;;
79566;SDS011;69030;48.126;7.816;2024-03-02T13:58:54;1.15;;;1.05;;
79566;SDS011;69030;48.126;7.816;2024-03-02T14:01:20;1.58;;;1.45;;
79566;SDS011;69030;48.126;7.816;2024-03-02T14:03:45;1.95;;;1.17;;
79566;SDS011;69030;48.126;7.816;2024-03-02T14:06:11;1.38;;;1.27;;
79566;SDS011;69030;48.126;7.816;2024-03-02T14:08:38;1.83;;;1.42;;
79566;SDS011;69030;48.126;7.816;2024-03-02T14:11:13;1.95;;;1.75;;
79566;SDS011;69030;48.126;7.816;2024-03-02T14:13:40;1.98;;;1.58;;
79566;SDS011;69030;48.126;7.816;2024-03-02T14:16:06;1.83;;;1.30;;
79566;SDS011;69030;48.126;7.816;2024-03-02T14:18:32;2.10;;;1.90;;
79566;SDS011;69030;48.126;7.816;2024-03-02T14:20:57;1.30;;;1.20;;
79566;SDS011;69030;48.126;7.816;2024-03-02T14:23:23;1.85;;;1.60;;
79566;SDS011;69030;48.126;7.816;2024-03-02T14:25:54;2.28;;;1.02;;
79566;SDS011;69030;48.126;7.816;2024-03-02T14:28:24;2.53;;;2.22;;
79566;SDS011;69030;48.126;7.816;2024-03-02T14:30:49;2.42;;;1.67;;
79566;SDS011;69030;48.126;7.816;2024-03-02T14:33:15;3.17;;;2.13;;
79566;SDS011;69030;48.126;7.816;2024-03-02T14:35:44;2.65;;;2.20;;
79566;SDS011;69030;48.126;7.816;2024-03-02T14:38:11;2.95;;;2.25;;
79566;SDS011;69030;48.126;7.816;2024-03-02T14:40:37;2.40;;;1.90;;
79566;SDS011;69030;48.126;7.816;2024-03-02T14:43:09;2.28;;;1.77;;
79566;SDS011;69030;48.126;7.816;2024-03-02T14:45:37;3.22;;;1.92;;
79566;SDS011;69030;48.126;7.816;2024-03-02T14:48:03;3.22;;;1.80;;
79566;SDS011;69030;48.126;7.816;2024-03-02T14:50:29;3.03;;;1.58;;
79566;SDS011;69030;48.126;7.816;2024-03-02T14:52:55;2.20;;;1.90;;
79566;SDS011;69030;48.126;7.816;2024-03-02T14:57:48;2.65;;;1.65;;
79566;SDS011;69030;48.126;7.816;2024-03-02T15:00:15;3.45;;;1.40;;
79566;SDS011;69030;48.126;7.816;2024-03-02T15:02:41;2.35;;;1.17;;
79566;SDS011;69030;48.126;7.816;2024-03-02T15:05:07;4.60;;;2.30;;
79566;SDS011;69030;48.126;7.816;2024-03-02T15:07:32;5.35;;;3.88;;